sensor_id;sensor_type;location;lat;lon;timestamp;pressure;altitude;pressure_sealevel;temperature
19666;BMP180;9980;51.020;7.772;2022-11-04T00:00:29;96191.00;;;14.80
19666;BMP180;9980;51.020;7.772;2022-11-04T00:03:15;96197.00;;;14.70
19666;BMP180;9980;51.020;7.772;2022-11-04T00:05:54;96201.00;;;14.70
19666;BMP180;9980;51.020;7.772;2022-11-04T00:08:40;96186.00;;;14.60
19666;BMP180;9980;51.020;7.772;2022-11-04T00:11:20;96185.00;;;14.60
19666;BMP180;9980;51.020;7.772;2022-11-04T00:14:28;96194.00;;;14.60
19666;BMP180;9980;51.020;7.772;2022-11-04T00:17:12;96207.00;;;14.60
19666;BMP180;9980;51.020;7.772;2022-11-04T00:20:06;96218.00;;;14.50
19666;BMP180;9980;51.020;7.772;2022-11-04T00:22:57;96201.00;;;14.50
19666;BMP180;9980;51.020;7.772;2022-11-04T00:26:08;96202.00;;;14.40
19666;BMP180;9980;51.020;7.772;2022-11-04T00:29:00;96200.00;;;14.40
19666;BMP180;9980;51.020;7.772;2022-11-04T00:31:53;96206.00;;;14.40
19666;BMP180;9980;51.020;7.772;2022-11-04T00:34:51;96209.00;;;14.30
19666;BMP180;9980;51.020;7.772;2022-11-04T00:37:42;96211.00;;;14.30
19666;BMP180;9980;51.020;7.772;2022-11-04T00:40:22;96222.00;;;14.30
19666;BMP180;9980;51.020;7.772;2022-11-04T00:43:08;96240.00;;;14.20
19666;BMP180;9980;51.020;7.772;2022-11-04T00:45:47;96242.00;;;14.20
19666;BMP180;9980;51.020;7.772;2022-11-04T00:48:33;96245.00;;;14.20
19666;BMP180;9980;51.020;7.772;2022-11-04T00:51:12;96251.00;;;14.10
19666;BMP180;9980;51.020;7.772;2022-11-04T00:54:00;96250.00;;;14.10
19666;BMP180;9980;51.020;7.772;2022-11-04T00:56:40;96264.00;;;14.10
19666;BMP180;9980;51.020;7.772;2022-11-04T00:59:27;96254.00;;;14.00
19666;BMP180;9980;51.020;7.772;2022-11-04T01:02:09;96259.00;;;14.00
19666;BMP180;9980;51.020;7.772;2022-11-04T01:05:02;96269.00;;;13.90
19666;BMP180;9980;51.020;7.772;2022-11-04T01:07:35;96262.00;;;13.90
19666;BMP180;9980;51.020;7.772;2022-11-04T01:10:28;96281.00;;;13.90
19666;BMP180;9980;51.020;7.772;2022-11-04T01:13:01;96282.00;;;13.90
19666;BMP180;9980;51.020;7.772;2022-11-04T01:15:58;96279.00;;;13.90
19666;BMP180;9980;51.020;7.772;2022-11-04T01:18:31;96302.00;;;13.90
19666;BMP180;9980;51.020;7.772;2022-11-04T01:21:24;96291.00;;;13.80
19666;BMP180;9980;51.020;7.772;2022-11-04T01:23:59;96289.00;;;13.90
19666;BMP180;9980;51.020;7.772;2022-11-04T01:26:52;96283.00;;;13.80
19666;BMP180;9980;51.020;7.772;2022-11-04T01:29:31;96291.00;;;13.80
19666;BMP180;9980;51.020;7.772;2022-11-04T01:32:17;96286.00;;;13.80
19666;BMP180;9980;51.020;7.772;2022-11-04T01:34:56;96301.00;;;13.80
19666;BMP180;9980;51.020;7.772;2022-11-04T01:37:42;96279.00;;;13.80
19666;BMP180;9980;51.020;7.772;2022-11-04T01:40:21;96289.00;;;13.80
19666;BMP180;9980;51.020;7.772;2022-11-04T01:43:17;96277.00;;;13.80
19666;BMP180;9980;51.020;7.772;2022-11-04T01:45:59;96271.00;;;13.80
19666;BMP180;9980;51.020;7.772;2022-11-04T01:48:45;96297.00;;;13.70
19666;BMP180;9980;51.020;7.772;2022-11-04T01:51:27;96295.00;;;13.70
19666;BMP180;9980;51.020;7.772;2022-11-04T01:54:14;96292.00;;;13.70
19666;BMP180;9980;51.020;7.772;2022-11-04T01:56:55;96293.00;;;13.70
19666;BMP180;9980;51.020;7.772;2022-11-04T01:59:57;96300.00;;;13.70
19666;BMP180;9980;51.020;7.772;2022-11-04T02:02:56;96300.00;;;13.60
19666;BMP180;9980;51.020;7.772;2022-11-04T02:05:45;96308.00;;;13.60
19666;BMP180;9980;51.020;7.772;2022-11-04T02:08:17;96298.00;;;13.60
19666;BMP180;9980;51.020;7.772;2022-11-04T02:11:11;96309.00;;;13.60
19666;BMP180;9980;51.020;7.772;2022-11-04T02:14:04;96316.00;;;13.60
19666;BMP180;9980;51.020;7.772;2022-11-04T02:17:25;96310.00;;;13.60
19666;BMP180;9980;51.020;7.772;2022-11-04T02:24:00;96318.00;;;13.50
19666;BMP180;9980;51.020;7.772;2022-11-04T02:27:29;96304.00;;;13.40
19666;BMP180;9980;51.020;7.772;2022-11-04T02:30:20;96291.00;;;13.40
19666;BMP180;9980;51.020;7.772;2022-11-04T02:33:19;96304.00;;;13.40
19666;BMP180;9980;51.020;7.772;2022-11-04T02:36:42;96308.00;;;13.40
19666;BMP180;9980;51.020;7.772;2022-11-04T02:39:50;96298.00;;;13.30
19666;BMP180;9980;51.020;7.772;2022-11-04T02:45:44;96301.00;;;13.30
19666;BMP180;9980;51.020;7.772;2022-11-04T02:48:30;96298.00;;;13.30
19666;BMP180;9980;51.020;7.772;2022-11-04T02:51:38;96308.00;;;13.20
19666;BMP180;9980;51.020;7.772;2022-11-04T02:57:20;96310.00;;;13.20
19666;BMP180;9980;51.020;7.772;2022-11-04T03:00:07;96296.00;;;13.10
19666;BMP180;9980;51.020;7.772;2022-11-04T03:03:04;96315.00;;;13.10
19666;BMP180;9980;51.020;7.772;2022-11-04T03:05:49;96309.00;;;13.10
19666;BMP180;9980;51.020;7.772;2022-11-04T03:08:42;96302.00;;;13.10
19666;BMP180;9980;51.020;7.772;2022-11-04T03:11:25;96308.00;;;13.10
19666;BMP180;9980;51.020;7.772;2022-11-04T03:14:29;96307.00;;;13.00
19666;BMP180;9980;51.020;7.772;2022-11-04T03:17:45;96317.00;;;13.00
19666;BMP180;9980;51.020;7.772;2022-11-04T03:20:37;96307.00;;;13.00
19666;BMP180;9980;51.020;7.772;2022-11-04T03:23:11;96307.00;;;13.00
19666;BMP180;9980;51.020;7.772;2022-11-04T03:26:28;96336.00;;;12.90
19666;BMP180;9980;51.020;7.772;2022-11-04T03:29:28;96321.00;;;12.90
19666;BMP180;9980;51.020;7.772;2022-11-04T03:35:28;96335.00;;;13.00
19666;BMP180;9980;51.020;7.772;2022-11-04T03:38:16;96330.00;;;12.90
19666;BMP180;9980;51.020;7.772;2022-11-04T03:40:58;96324.00;;;13.00
19666;BMP180;9980;51.020;7.772;2022-11-04T03:43:46;96348.00;;;13.00
19666;BMP180;9980;51.020;7.772;2022-11-04T03:46:26;96336.00;;;13.00
19666;BMP180;9980;51.020;7.772;2022-11-04T03:49:21;96344.00;;;13.00
19666;BMP180;9980;51.020;7.772;2022-11-04T03:51:54;96347.00;;;13.00
19666;BMP180;9980;51.020;7.772;2022-11-04T03:54:49;96337.00;;;13.00
19666;BMP180;9980;51.020;7.772;2022-11-04T03:57:53;96338.00;;;13.00
19666;BMP180;9980;51.020;7.772;2022-11-04T04:00:59;96328.00;;;12.90
19666;BMP180;9980;51.020;7.772;2022-11-04T04:03:52;96336.00;;;13.00
19666;BMP180;9980;51.020;7.772;2022-11-04T04:06:50;96331.00;;;13.00
19666;BMP180;9980;51.020;7.772;2022-11-04T04:09:53;96315.00;;;12.90
19666;BMP180;9980;51.020;7.772;2022-11-04T04:12:41;96330.00;;;12.90
19666;BMP180;9980;51.020;7.772;2022-11-04T04:15:29;96320.00;;;12.90
19666;BMP180;9980;51.020;7.772;2022-11-04T04:18:30;96323.00;;;12.90
19666;BMP180;9980;51.020;7.772;2022-11-04T04:21:19;96333.00;;;12.90
19666;BMP180;9980;51.020;7.772;2022-11-04T04:24:09;96338.00;;;12.90
19666;BMP180;9980;51.020;7.772;2022-11-04T04:27:09;96353.00;;;12.90
19666;BMP180;9980;51.020;7.772;2022-11-04T04:30:18;96348.00;;;12.80
19666;BMP180;9980;51.020;7.772;2022-11-04T04:33:12;96353.00;;;12.80
19666;BMP180;9980;51.020;7.772;2022-11-04T04:36:08;96344.00;;;12.80
19666;BMP180;9980;51.020;7.772;2022-11-04T04:38:42;96367.00;;;12.80
19666;BMP180;9980;51.020;7.772;2022-11-04T04:41:54;96363.00;;;12.70
19666;BMP180;9980;51.020;7.772;2022-11-04T04:44:52;96371.00;;;12.70
19666;BMP180;9980;51.020;7.772;2022-11-04T04:47:44;96351.00;;;12.70
19666;BMP180;9980;51.020;7.772;2022-11-04T04:50:35;96381.00;;;12.70
19666;BMP180;9980;51.020;7.772;2022-11-04T04:53:22;96369.00;;;12.70
19666;BMP180;9980;51.020;7.772;2022-11-04T04:56:01;96384.00;;;12.70
19666;BMP180;9980;51.020;7.772;2022-11-04T04:58:47;96386.00;;;12.70
19666;BMP180;9980;51.020;7.772;2022-11-04T05:01:26;96380.00;;;12.80
19666;BMP180;9980;51.020;7.772;2022-11-04T05:04:20;96383.00;;;12.70
19666;BMP180;9980;51.020;7.772;2022-11-04T05:06:53;96386.00;;;12.80
19666;BMP180;9980;51.020;7.772;2022-11-04T05:09:46;96379.00;;;12.80
19666;BMP180;9980;51.020;7.772;2022-11-04T05:12:20;96375.00;;;12.80
19666;BMP180;9980;51.020;7.772;2022-11-04T05:15:33;96375.00;;;12.80
19666;BMP180;9980;51.020;7.772;2022-11-04T05:18:06;96370.00;;;12.80
19666;BMP180;9980;51.020;7.772;2022-11-04T05:21:07;96380.00;;;12.80
19666;BMP180;9980;51.020;7.772;2022-11-04T05:23:40;96360.00;;;12.80
19666;BMP180;9980;51.020;7.772;2022-11-04T05:26:33;96366.00;;;12.80
19666;BMP180;9980;51.020;7.772;2022-11-04T05:29:08;96382.00;;;12.80
19666;BMP180;9980;51.020;7.772;2022-11-04T05:32:01;96369.00;;;12.80
19666;BMP180;9980;51.020;7.772;2022-11-04T05:34:40;96380.00;;;12.80
19666;BMP180;9980;51.020;7.772;2022-11-04T05:37:26;96376.00;;;12.80
19666;BMP180;9980;51.020;7.772;2022-11-04T05:40:06;96362.00;;;12.80
19666;BMP180;9980;51.020;7.772;2022-11-04T05:42:52;96366.00;;;12.70
19666;BMP180;9980;51.020;7.772;2022-11-04T05:45:31;96374.00;;;12.80
19666;BMP180;9980;51.020;7.772;2022-11-04T05:48:17;96368.00;;;12.80
19666;BMP180;9980;51.020;7.772;2022-11-04T05:50:56;96371.00;;;12.80
19666;BMP180;9980;51.020;7.772;2022-11-04T05:53:42;96375.00;;;12.70
19666;BMP180;9980;51.020;7.772;2022-11-04T05:56:21;96396.00;;;12.70
19666;BMP180;9980;51.020;7.772;2022-11-04T05:59:07;96387.00;;;12.70
19666;BMP180;9980;51.020;7.772;2022-11-04T06:01:46;96389.00;;;12.70
19666;BMP180;9980;51.020;7.772;2022-11-04T06:04:39;96387.00;;;12.60
19666;BMP180;9980;51.020;7.772;2022-11-04T06:07:12;96403.00;;;12.60
19666;BMP180;9980;51.020;7.772;2022-11-04T06:10:06;96400.00;;;12.60
19666;BMP180;9980;51.020;7.772;2022-11-04T06:12:38;96404.00;;;12.60
19666;BMP180;9980;51.020;7.772;2022-11-04T06:15:31;96409.00;;;12.50
19666;BMP180;9980;51.020;7.772;2022-11-04T06:18:04;96415.00;;;12.50
19666;BMP180;9980;51.020;7.772;2022-11-04T06:23:45;96409.00;;;12.40
19666;BMP180;9980;51.020;7.772;2022-11-04T06:26:38;96418.00;;;12.40
19666;BMP180;9980;51.020;7.772;2022-11-04T06:29:11;96415.00;;;12.40
19666;BMP180;9980;51.020;7.772;2022-11-04T06:32:10;96406.00;;;12.30
19666;BMP180;9980;51.020;7.772;2022-11-04T06:34:50;96417.00;;;12.30
19666;BMP180;9980;51.020;7.772;2022-11-04T06:37:36;96420.00;;;12.20
19666;BMP180;9980;51.020;7.772;2022-11-04T06:40:15;96426.00;;;12.20
19666;BMP180;9980;51.020;7.772;2022-11-04T06:43:01;96424.00;;;12.20
19666;BMP180;9980;51.020;7.772;2022-11-04T06:45:42;96443.00;;;12.20
19666;BMP180;9980;51.020;7.772;2022-11-04T06:48:29;96459.00;;;12.20
19666;BMP180;9980;51.020;7.772;2022-11-04T06:51:09;96468.00;;;12.20
19666;BMP180;9980;51.020;7.772;2022-11-04T06:53:55;96455.00;;;12.20
19666;BMP180;9980;51.020;7.772;2022-11-04T06:56:35;96456.00;;;12.20
19666;BMP180;9980;51.020;7.772;2022-11-04T06:59:21;96462.00;;;12.10
19666;BMP180;9980;51.020;7.772;2022-11-04T07:02:01;96448.00;;;12.20
19666;BMP180;9980;51.020;7.772;2022-11-04T07:04:54;96461.00;;;12.10
19666;BMP180;9980;51.020;7.772;2022-11-04T07:07:28;96466.00;;;12.20
19666;BMP180;9980;51.020;7.772;2022-11-04T07:10:21;96472.00;;;12.20
19666;BMP180;9980;51.020;7.772;2022-11-04T07:12:54;96478.00;;;12.20
19666;BMP180;9980;51.020;7.772;2022-11-04T07:15:47;96484.00;;;12.20
19666;BMP180;9980;51.020;7.772;2022-11-04T07:18:20;96493.00;;;12.20
19666;BMP180;9980;51.020;7.772;2022-11-04T07:21:13;96484.00;;;12.20
19666;BMP180;9980;51.020;7.772;2022-11-04T07:23:52;96489.00;;;12.20
19666;BMP180;9980;51.020;7.772;2022-11-04T07:26:38;96478.00;;;12.20
19666;BMP180;9980;51.020;7.772;2022-11-04T07:29:11;96488.00;;;12.30
19666;BMP180;9980;51.020;7.772;2022-11-04T07:32:04;96491.00;;;12.30
19666;BMP180;9980;51.020;7.772;2022-11-04T07:34:44;96496.00;;;12.30
19666;BMP180;9980;51.020;7.772;2022-11-04T07:37:30;96501.00;;;12.40
19666;BMP180;9980;51.020;7.772;2022-11-04T07:40:10;96520.00;;;12.40
19666;BMP180;9980;51.020;7.772;2022-11-04T07:42:56;96508.00;;;12.40
19666;BMP180;9980;51.020;7.772;2022-11-04T07:45:37;96510.00;;;12.50
19666;BMP180;9980;51.020;7.772;2022-11-04T07:48:22;96511.00;;;12.50
19666;BMP180;9980;51.020;7.772;2022-11-04T07:51:04;96511.00;;;12.50
19666;BMP180;9980;51.020;7.772;2022-11-04T07:53:50;96518.00;;;12.60
19666;BMP180;9980;51.020;7.772;2022-11-04T07:56:29;96515.00;;;12.60
19666;BMP180;9980;51.020;7.772;2022-11-04T07:59:15;96531.00;;;12.60
19666;BMP180;9980;51.020;7.772;2022-11-04T08:01:54;96510.00;;;12.70
19666;BMP180;9980;51.020;7.772;2022-11-04T08:04:47;96518.00;;;12.70
19666;BMP180;9980;51.020;7.772;2022-11-04T08:07:20;96517.00;;;12.80
19666;BMP180;9980;51.020;7.772;2022-11-04T08:10:13;96527.00;;;12.80
19666;BMP180;9980;51.020;7.772;2022-11-04T08:12:46;96523.00;;;12.90
19666;BMP180;9980;51.020;7.772;2022-11-04T08:15:39;96522.00;;;12.90
19666;BMP180;9980;51.020;7.772;2022-11-04T08:18:12;96526.00;;;12.90
19666;BMP180;9980;51.020;7.772;2022-11-04T08:21:05;96534.00;;;12.90
19666;BMP180;9980;51.020;7.772;2022-11-04T08:23:39;96532.00;;;13.00
19666;BMP180;9980;51.020;7.772;2022-11-04T08:26:32;96520.00;;;13.00
19666;BMP180;9980;51.020;7.772;2022-11-04T08:29:07;96520.00;;;13.10
19666;BMP180;9980;51.020;7.772;2022-11-04T08:32:01;96514.00;;;13.10
19666;BMP180;9980;51.020;7.772;2022-11-04T08:34:33;96521.00;;;13.20
19666;BMP180;9980;51.020;7.772;2022-11-04T08:37:26;96527.00;;;13.20
19666;BMP180;9980;51.020;7.772;2022-11-04T08:40:06;96518.00;;;13.30
19666;BMP180;9980;51.020;7.772;2022-11-04T08:42:52;96524.00;;;13.30
19666;BMP180;9980;51.020;7.772;2022-11-04T08:45:31;96526.00;;;13.40
19666;BMP180;9980;51.020;7.772;2022-11-04T08:48:17;96517.00;;;13.50
19666;BMP180;9980;51.020;7.772;2022-11-04T08:50:57;96515.00;;;13.50
19666;BMP180;9980;51.020;7.772;2022-11-04T08:53:43;96522.00;;;13.60
19666;BMP180;9980;51.020;7.772;2022-11-04T08:56:30;96524.00;;;13.70
19666;BMP180;9980;51.020;7.772;2022-11-04T08:59:23;96524.00;;;13.70
19666;BMP180;9980;51.020;7.772;2022-11-04T09:02:02;96521.00;;;13.80
19666;BMP180;9980;51.020;7.772;2022-11-04T09:04:55;96510.00;;;13.90
19666;BMP180;9980;51.020;7.772;2022-11-04T09:07:28;96504.00;;;14.00
19666;BMP180;9980;51.020;7.772;2022-11-04T09:10:22;96519.00;;;14.00
19666;BMP180;9980;51.020;7.772;2022-11-04T09:12:54;96519.00;;;14.10
19666;BMP180;9980;51.020;7.772;2022-11-04T09:15:47;96522.00;;;14.10
19666;BMP180;9980;51.020;7.772;2022-11-04T09:18:26;96513.00;;;14.20
19666;BMP180;9980;51.020;7.772;2022-11-04T09:21:19;96515.00;;;14.20
19666;BMP180;9980;51.020;7.772;2022-11-04T09:23:53;96502.00;;;14.30
19666;BMP180;9980;51.020;7.772;2022-11-04T09:26:46;96512.00;;;14.30
19666;BMP180;9980;51.020;7.772;2022-11-04T09:29:25;96521.00;;;14.40
19666;BMP180;9980;51.020;7.772;2022-11-04T09:32:12;96512.00;;;14.40
19666;BMP180;9980;51.020;7.772;2022-11-04T09:34:51;96513.00;;;14.50
19666;BMP180;9980;51.020;7.772;2022-11-04T09:37:37;96526.00;;;14.50
19666;BMP180;9980;51.020;7.772;2022-11-04T09:40:21;96515.00;;;14.60
19666;BMP180;9980;51.020;7.772;2022-11-04T09:43:49;96523.00;;;14.60
19666;BMP180;9980;51.020;7.772;2022-11-04T09:46:32;96517.00;;;14.70
19666;BMP180;9980;51.020;7.772;2022-11-04T09:49:33;96522.00;;;14.70
19666;BMP180;9980;51.020;7.772;2022-11-04T09:52:40;96527.00;;;14.70
19666;BMP180;9980;51.020;7.772;2022-11-04T09:56:11;96517.00;;;14.70
19666;BMP180;9980;51.020;7.772;2022-11-04T09:58:46;96520.00;;;14.80
19666;BMP180;9980;51.020;7.772;2022-11-04T10:02:25;96508.00;;;14.80
19666;BMP180;9980;51.020;7.772;2022-11-04T10:08:40;96515.00;;;14.90
19666;BMP180;9980;51.020;7.772;2022-11-04T10:11:52;96516.00;;;15.00
19666;BMP180;9980;51.020;7.772;2022-11-04T10:21:39;96519.00;;;15.20
19666;BMP180;9980;51.020;7.772;2022-11-04T10:25:11;96530.00;;;15.30
19666;BMP180;9980;51.020;7.772;2022-11-04T10:27:59;96521.00;;;15.30
19666;BMP180;9980;51.020;7.772;2022-11-04T10:30:42;96530.00;;;15.40
19666;BMP180;9980;51.020;7.772;2022-11-04T10:34:04;96518.00;;;15.40
19666;BMP180;9980;51.020;7.772;2022-11-04T10:36:47;96526.00;;;15.40
19666;BMP180;9980;51.020;7.772;2022-11-04T10:39:46;96535.00;;;15.50
19666;BMP180;9980;51.020;7.772;2022-11-04T10:42:20;96536.00;;;15.50
19666;BMP180;9980;51.020;7.772;2022-11-04T10:45:14;96538.00;;;15.60
19666;BMP180;9980;51.020;7.772;2022-11-04T10:47:58;96542.00;;;15.60
19666;BMP180;9980;51.020;7.772;2022-11-04T10:50:57;96546.00;;;15.70
19666;BMP180;9980;51.020;7.772;2022-11-04T10:53:32;96545.00;;;15.70
19666;BMP180;9980;51.020;7.772;2022-11-04T10:56:47;96549.00;;;15.80
19666;BMP180;9980;51.020;7.772;2022-11-04T10:59:29;96547.00;;;15.80
19666;BMP180;9980;51.020;7.772;2022-11-04T11:08:04;96563.00;;;16.10
19666;BMP180;9980;51.020;7.772;2022-11-04T11:10:50;96570.00;;;16.20
19666;BMP180;9980;51.020;7.772;2022-11-04T11:13:43;96550.00;;;16.20
19666;BMP180;9980;51.020;7.772;2022-11-04T11:16:26;96566.00;;;16.30
19666;BMP180;9980;51.020;7.772;2022-11-04T11:19:24;96564.00;;;16.30
19666;BMP180;9980;51.020;7.772;2022-11-04T11:22:03;96561.00;;;16.40
19666;BMP180;9980;51.020;7.772;2022-11-04T11:25:29;96568.00;;;16.30
19666;BMP180;9980;51.020;7.772;2022-11-04T11:28:12;96567.00;;;16.40
19666;BMP180;9980;51.020;7.772;2022-11-04T11:31:14;96572.00;;;16.40
19666;BMP180;9980;51.020;7.772;2022-11-04T11:34:18;96554.00;;;16.40
19666;BMP180;9980;51.020;7.772;2022-11-04T11:37:23;96562.00;;;16.40
19666;BMP180;9980;51.020;7.772;2022-11-04T11:39:57;96571.00;;;16.40
19666;BMP180;9980;51.020;7.772;2022-11-04T11:42:40;96563.00;;;16.40
19666;BMP180;9980;51.020;7.772;2022-11-04T11:45:33;96560.00;;;16.40
19666;BMP180;9980;51.020;7.772;2022-11-04T11:48:41;96567.00;;;16.40
19666;BMP180;9980;51.020;7.772;2022-11-04T11:51:37;96568.00;;;16.40
19666;BMP180;9980;51.020;7.772;2022-11-04T11:54:35;96575.00;;;16.40
19666;BMP180;9980;51.020;7.772;2022-11-04T11:57:55;96569.00;;;16.40
19666;BMP180;9980;51.020;7.772;2022-11-04T12:01:05;96560.00;;;16.40
19666;BMP180;9980;51.020;7.772;2022-11-04T12:04:03;96570.00;;;16.40
19666;BMP180;9980;51.020;7.772;2022-11-04T12:10:44;96577.00;;;16.50
19666;BMP180;9980;51.020;7.772;2022-11-04T12:13:50;96573.00;;;16.50
19666;BMP180;9980;51.020;7.772;2022-11-04T12:16:39;96570.00;;;16.50
19666;BMP180;9980;51.020;7.772;2022-11-04T12:39:12;96582.00;;;16.60
19666;BMP180;9980;51.020;7.772;2022-11-04T12:42:40;96593.00;;;16.60
19666;BMP180;9980;51.020;7.772;2022-11-04T12:49:19;96575.00;;;16.60
19666;BMP180;9980;51.020;7.772;2022-11-04T12:55:51;96592.00;;;16.60
19666;BMP180;9980;51.020;7.772;2022-11-04T12:59:53;96599.00;;;16.60
19666;BMP180;9980;51.020;7.772;2022-11-04T13:02:32;96594.00;;;16.50
19666;BMP180;9980;51.020;7.772;2022-11-04T13:05:50;96605.00;;;16.50
19666;BMP180;9980;51.020;7.772;2022-11-04T13:08:38;96601.00;;;16.50
19666;BMP180;9980;51.020;7.772;2022-11-04T13:11:44;96601.00;;;16.50
19666;BMP180;9980;51.020;7.772;2022-11-04T13:14:24;96615.00;;;16.50
19666;BMP180;9980;51.020;7.772;2022-11-04T13:17:27;96618.00;;;16.40
19666;BMP180;9980;51.020;7.772;2022-11-04T13:23:03;96603.00;;;16.30
19666;BMP180;9980;51.020;7.772;2022-11-04T13:25:45;96620.00;;;16.30
19666;BMP180;9980;51.020;7.772;2022-11-04T13:28:55;96617.00;;;16.30
19666;BMP180;9980;51.020;7.772;2022-11-04T13:44:29;96630.00;;;16.10
19666;BMP180;9980;51.020;7.772;2022-11-04T13:47:20;96644.00;;;16.10
19666;BMP180;9980;51.020;7.772;2022-11-04T13:53:11;96641.00;;;16.10
19666;BMP180;9980;51.020;7.772;2022-11-04T13:56:07;96629.00;;;16.10
19666;BMP180;9980;51.020;7.772;2022-11-04T13:59:27;96645.00;;;16.00
19666;BMP180;9980;51.020;7.772;2022-11-04T14:04:54;96649.00;;;16.10
19666;BMP180;9980;51.020;7.772;2022-11-04T14:13:43;96644.00;;;16.10
19666;BMP180;9980;51.020;7.772;2022-11-04T14:19:56;96660.00;;;16.10
19666;BMP180;9980;51.020;7.772;2022-11-04T14:25:39;96658.00;;;16.10
19666;BMP180;9980;51.020;7.772;2022-11-04T14:31:07;96666.00;;;16.10
19666;BMP180;9980;51.020;7.772;2022-11-04T14:33:56;96670.00;;;16.10
19666;BMP180;9980;51.020;7.772;2022-11-04T14:37:18;96675.00;;;16.10
19666;BMP180;9980;51.020;7.772;2022-11-04T14:39:59;96682.00;;;16.10
19666;BMP180;9980;51.020;7.772;2022-11-04T14:42:55;96674.00;;;16.10
19666;BMP180;9980;51.020;7.772;2022-11-04T14:45:38;96684.00;;;16.20
19666;BMP180;9980;51.020;7.772;2022-11-04T14:48:26;96684.00;;;16.20
19666;BMP180;9980;51.020;7.772;2022-11-04T14:51:28;96697.00;;;16.10
19666;BMP180;9980;51.020;7.772;2022-11-04T14:54:24;96693.00;;;16.20
19666;BMP180;9980;51.020;7.772;2022-11-04T14:57:22;96695.00;;;16.10
19666;BMP180;9980;51.020;7.772;2022-11-04T15:00:33;96699.00;;;16.10
19666;BMP180;9980;51.020;7.772;2022-11-04T15:03:21;96724.00;;;16.10
19666;BMP180;9980;51.020;7.772;2022-11-04T15:06:34;96718.00;;;16.10
19666;BMP180;9980;51.020;7.772;2022-11-04T15:09:33;96715.00;;;16.10
19666;BMP180;9980;51.020;7.772;2022-11-04T15:12:27;96744.00;;;16.10
19666;BMP180;9980;51.020;7.772;2022-11-04T15:15:32;96739.00;;;16.00
19666;BMP180;9980;51.020;7.772;2022-11-04T15:18:26;96747.00;;;16.00
19666;BMP180;9980;51.020;7.772;2022-11-04T15:21:08;96743.00;;;16.00
19666;BMP180;9980;51.020;7.772;2022-11-04T15:23:55;96754.00;;;15.90
19666;BMP180;9980;51.020;7.772;2022-11-04T15:26:35;96747.00;;;15.90
19666;BMP180;9980;51.020;7.772;2022-11-04T15:29:23;96758.00;;;15.90
19666;BMP180;9980;51.020;7.772;2022-11-04T15:32:04;96768.00;;;15.90
19666;BMP180;9980;51.020;7.772;2022-11-04T15:34:50;96767.00;;;15.80
19666;BMP180;9980;51.020;7.772;2022-11-04T15:37:32;96768.00;;;15.80
19666;BMP180;9980;51.020;7.772;2022-11-04T15:40:28;96763.00;;;15.70
19666;BMP180;9980;51.020;7.772;2022-11-04T15:43:03;96772.00;;;15.70
19666;BMP180;9980;51.020;7.772;2022-11-04T15:45:56;96787.00;;;15.70
19666;BMP180;9980;51.020;7.772;2022-11-04T15:48:35;96797.00;;;15.70
19666;BMP180;9980;51.020;7.772;2022-11-04T15:51:35;96788.00;;;15.60
19666;BMP180;9980;51.020;7.772;2022-11-04T15:54:25;96797.00;;;15.60
19666;BMP180;9980;51.020;7.772;2022-11-04T16:00:04;96800.00;;;15.50
19666;BMP180;9980;51.020;7.772;2022-11-04T16:02:59;96806.00;;;15.50
19666;BMP180;9980;51.020;7.772;2022-11-04T16:05:39;96799.00;;;15.50
19666;BMP180;9980;51.020;7.772;2022-11-04T16:08:28;96800.00;;;15.40
19666;BMP180;9980;51.020;7.772;2022-11-04T16:11:17;96803.00;;;15.40
19666;BMP180;9980;51.020;7.772;2022-11-04T16:14:34;96803.00;;;15.30
19666;BMP180;9980;51.020;7.772;2022-11-04T16:17:14;96804.00;;;15.30
19666;BMP180;9980;51.020;7.772;2022-11-04T16:20:05;96815.00;;;15.30
19666;BMP180;9980;51.020;7.772;2022-11-04T16:22:45;96816.00;;;15.30
19666;BMP180;9980;51.020;7.772;2022-11-04T16:25:38;96811.00;;;15.20
19666;BMP180;9980;51.020;7.772;2022-11-04T16:28:22;96809.00;;;15.20
19666;BMP180;9980;51.020;7.772;2022-11-04T16:33:53;96829.00;;;15.10
19666;BMP180;9980;51.020;7.772;2022-11-04T16:36:46;96835.00;;;15.10
19666;BMP180;9980;51.020;7.772;2022-11-04T16:39:20;96840.00;;;15.10
19666;BMP180;9980;51.020;7.772;2022-11-04T16:42:14;96837.00;;;15.00
19666;BMP180;9980;51.020;7.772;2022-11-04T16:44:51;96850.00;;;15.00
19666;BMP180;9980;51.020;7.772;2022-11-04T16:47:46;96866.00;;;15.00
19666;BMP180;9980;51.020;7.772;2022-11-04T16:50:27;96845.00;;;15.00
19666;BMP180;9980;51.020;7.772;2022-11-04T16:53:13;96856.00;;;14.90
19666;BMP180;9980;51.020;7.772;2022-11-04T16:55:53;96868.00;;;14.90
19666;BMP180;9980;51.020;7.772;2022-11-04T16:58:40;96870.00;;;14.90
19666;BMP180;9980;51.020;7.772;2022-11-04T17:01:19;96865.00;;;14.90
19666;BMP180;9980;51.020;7.772;2022-11-04T17:04:06;96872.00;;;14.80
19666;BMP180;9980;51.020;7.772;2022-11-04T17:06:45;96871.00;;;14.80
19666;BMP180;9980;51.020;7.772;2022-11-04T17:09:31;96873.00;;;14.80
19666;BMP180;9980;51.020;7.772;2022-11-04T17:12:10;96871.00;;;14.80
19666;BMP180;9980;51.020;7.772;2022-11-04T17:15:04;96867.00;;;14.70
19666;BMP180;9980;51.020;7.772;2022-11-04T17:17:44;96875.00;;;14.70
19666;BMP180;9980;51.020;7.772;2022-11-04T17:20:50;96882.00;;;14.70
19666;BMP180;9980;51.020;7.772;2022-11-04T17:23:24;96872.00;;;14.70
19666;BMP180;9980;51.020;7.772;2022-11-04T17:26:16;96895.00;;;14.60
19666;BMP180;9980;51.020;7.772;2022-11-04T17:28:50;96885.00;;;14.60
19666;BMP180;9980;51.020;7.772;2022-11-04T17:31:43;96894.00;;;14.50
19666;BMP180;9980;51.020;7.772;2022-11-04T17:34:41;96891.00;;;14.50
19666;BMP180;9980;51.020;7.772;2022-11-04T17:37:35;96892.00;;;14.40
19666;BMP180;9980;51.020;7.772;2022-11-04T17:40:15;96895.00;;;14.30
19666;BMP180;9980;51.020;7.772;2022-11-04T17:43:09;96897.00;;;14.30
19666;BMP180;9980;51.020;7.772;2022-11-04T17:46:07;96914.00;;;14.20
19666;BMP180;9980;51.020;7.772;2022-11-04T17:49:19;96921.00;;;14.20
19666;BMP180;9980;51.020;7.772;2022-11-04T17:52:00;96909.00;;;14.10
19666;BMP180;9980;51.020;7.772;2022-11-04T17:54:46;96926.00;;;14.10
19666;BMP180;9980;51.020;7.772;2022-11-04T17:57:25;96923.00;;;14.10
19666;BMP180;9980;51.020;7.772;2022-11-04T18:00:12;96919.00;;;14.00
19666;BMP180;9980;51.020;7.772;2022-11-04T18:02:52;96929.00;;;14.00
19666;BMP180;9980;51.020;7.772;2022-11-04T18:05:45;96939.00;;;14.00
19666;BMP180;9980;51.020;7.772;2022-11-04T18:08:18;96935.00;;;14.00
19666;BMP180;9980;51.020;7.772;2022-11-04T18:11:14;96934.00;;;13.90
19666;BMP180;9980;51.020;7.772;2022-11-04T18:14:07;96933.00;;;13.90
19666;BMP180;9980;51.020;7.772;2022-11-04T18:17:01;96930.00;;;13.90